Campanya meteocatpedra

Dades EMA Vilanova de Segrià

?
?
Resum diari 22:30 TU
Dades diàries de l'estació meteorològica
Temperatura mitjana 22.8 °C
Temperatura màxima 32.6 °C 15:46 TU
Temperatura mínima 13.0 °C 3:07 TU
Humitat relativa mitjana 54%
Precipitació acumulada 0.0 mm
Ratxa màxima del vent (2 m) 18.7 km/h - 195º 17:21 TU
Irradiació solar global 29.7 MJ/m2

El tram horari està expressat en Temps Universal (TU). Cal sumar una hora en horari d'hivern i dues en horari d'estiu per passar a l'hora oficial.

Vilanova de Segrià

Metadades estació meteorol´gica
Municipi Vilanova de Segrià
Comarca Segrià
Altitud 222 m
Data alta 17.09.1997
Estat actual Operativa
Dades de període
Període
TU
TM
°C
TX
°C
TN
°C
HRM
%
PPT
mm
VVM (2 m)
km/h
DVM (2 m)
graus
VVX (2 m)
km/h
RS
W/m2
00:00 - 00:30 16.3 16.6 15.8 80 0.0 0.4 323 2.2 0
00:30 - 01:00 15.6 15.8 15.4 84 0.0 0.4 306 2.2 0
01:00 - 01:30 15.1 15.4 14.7 86 0.0 0.0 307 2.2 0
01:30 - 02:00 14.4 14.7 14.1 90 0.0 0.4 304 2.5 0
02:00 - 02:30 13.7 14.0 13.5 92 0.0 0.4 304 2.2 0
02:30 - 03:00 13.3 13.6 13.0 93 0.0 0.4 308 2.2 0
03:00 - 03:30 13.5 13.9 13.0 89 0.0 1.8 317 4.7 0
03:30 - 04:00 14.5 14.9 13.9 83 0.0 2.9 315 5.4 0
04:00 - 04:30 14.5 14.9 14.1 83 0.0 1.4 319 5.4 1
04:30 - 05:00 14.0 14.5 13.7 84 0.0 0.4 311 1.8 18
05:00 - 05:30 14.8 15.6 13.9 83 0.0 0.0 344 1.8 74
05:30 - 06:00 16.6 18.2 15.5 76 0.0 0.4 345 1.8 151
06:00 - 06:30 18.3 18.7 18.0 67 0.0 1.4 111 4.0 235
06:30 - 07:00 19.1 19.7 18.8 66 0.0 2.2 84 5.4 333
07:00 - 07:30 20.6 21.7 19.7 61 0.0 1.4 97 5.8 430
07:30 - 08:00 22.2 22.9 21.7 55 0.0 2.2 155 6.8 521
08:00 - 08:30 23.4 24.0 22.8 52 0.0 2.9 139 7.6 611
08:30 - 09:00 24.6 25.3 23.9 50 0.0 2.5 173 6.5 694
09:00 - 09:30 25.6 26.7 24.9 45 0.0 2.5 246 6.8 766
09:30 - 10:00 26.9 27.9 25.9 40 0.0 3.6 150 8.6 828
10:00 - 10:30 27.6 27.9 27.3 34 0.0 6.5 204 14.8 878
10:30 - 11:00 28.0 28.6 27.6 32 0.0 6.1 223 12.6 915
11:00 - 11:30 28.5 28.8 28.3 32 0.0 5.0 215 11.9 940
11:30 - 12:00 29.1 29.7 28.6 31 0.0 6.5 189 16.2 952
12:00 - 12:30 29.6 30.1 29.1 30 0.0 5.8 199 12.6 949
12:30 - 13:00 30.0 30.3 29.7 30 0.0 5.4 203 13.3 934
13:00 - 13:30 30.2 30.8 29.8 31 0.0 6.5 214 13.3 906
13:30 - 14:00 30.3 30.6 30.0 31 0.0 5.4 231 11.9 865
14:00 - 14:30 30.7 31.3 30.4 30 0.0 4.3 213 10.8 814
14:30 - 15:00 31.2 31.8 30.6 29 0.0 4.0 174 8.6 751
15:00 - 15:30 31.2 31.6 30.9 30 0.0 3.6 188 9.7 680
15:30 - 16:00 31.8 32.6 31.1 28 0.0 2.9 234 8.6 601
16:00 - 16:30 31.1 31.5 30.7 31 0.0 4.3 222 12.2 510
16:30 - 17:00 31.0 31.3 30.6 31 0.0 3.2 239 9.0 416
17:00 - 17:30 30.3 31.5 29.2 30 0.0 7.2 216 18.7 316
17:30 - 18:00 28.9 29.2 28.5 32 0.0 7.9 210 15.5 220
18:00 - 18:30 27.9 28.4 27.3 33 0.0 6.5 208 11.9 130
18:30 - 19:00 26.5 27.3 25.5 34 0.0 5.0 213 10.4 52
19:00 - 19:30 24.9 25.4 24.0 37 0.0 4.0 235 9.4 7
19:30 - 20:00 22.9 23.9 22.3 43 0.0 2.2 226 4.3 0
20:00 - 20:30 21.4 22.4 19.7 47 0.0 0.0 195 3.2 0
20:30 - 21:00 18.9 19.6 18.5 60 0.0 0.4 226 3.2 0
21:00 - 21:30 18.4 18.7 18.0 62 0.0 1.4 305 5.0 0
21:30 - 22:00 18.2 18.8 17.0 63 0.0 1.1 317 4.7 0
22:00 - 22:30 16.9 18.3 16.3 70 0.0 2.9 2 9.0 0
22:30 - 23:00 16.6 17.1 15.9 71 0.0 1.1 314 3.6 0

Les dades en taronja només han passat un control de qualitat automàtic. Resta pendent la seva validació definitiva.